createdAt,value
2023-04-26T00:01:57.549Z,92759.22
2023-04-26T00:04:25.325Z,92748.16
2023-04-26T00:06:53.869Z,92750.88
2023-04-26T00:09:20.991Z,92742.28
2023-04-26T00:11:47.959Z,92738.88
2023-04-26T00:14:15.681Z,92733.69
2023-04-26T00:16:42.669Z,92727.16
2023-04-26T00:19:12.796Z,92732.16
2023-04-26T00:21:39.839Z,92729.94
2023-04-26T00:24:08.718Z,92723.06
2023-04-26T00:26:36.111Z,92728.03
2023-04-26T00:29:04.431Z,92724.97
2023-04-26T00:31:31.521Z,92717.16
2023-04-26T00:33:58.449Z,92710.59
2023-04-26T00:36:26.469Z,92712.59
2023-04-26T00:38:53.839Z,92708.50
2023-04-26T00:41:22.662Z,92714.28
2023-04-26T00:43:49.916Z,92709.25
2023-04-26T00:46:17.652Z,92707.19
2023-04-26T00:48:45.202Z,92706.69
2023-04-26T00:51:12.789Z,92708.59
2023-04-26T00:53:40.020Z,92714.16
2023-04-26T00:56:08.095Z,92708.78
2023-04-26T00:58:36.867Z,92717.16
2023-04-26T01:01:04.634Z,92713.66
2023-04-26T01:03:31.729Z,92717.81
2023-04-26T01:06:01.139Z,92719.28
2023-04-26T01:08:28.179Z,92724.06
2023-04-26T01:10:58.452Z,92730.78
2023-04-26T01:13:26.871Z,92717.53
2023-04-26T01:15:56.181Z,92724.09
2023-04-26T01:18:23.258Z,92715.78
2023-04-26T01:20:52.172Z,92704.44
2023-04-26T01:23:20.280Z,92704.78
2023-04-26T01:25:47.001Z,92705.75
2023-04-26T01:28:13.976Z,92696.78
2023-04-26T01:30:41.068Z,92701.91
2023-04-26T01:33:08.053Z,92703.84
2023-04-26T01:35:35.187Z,92709.72
2023-04-26T01:38:04.393Z,92713.69
2023-04-26T01:40:32.746Z,92714.81
2023-04-26T01:42:59.813Z,92720.06
2023-04-26T01:45:30.805Z,92721.19
2023-04-26T01:48:16.863Z,92723.09
2023-04-26T01:50:43.960Z,92716.25
2023-04-26T01:53:13.691Z,92714.00
2023-04-26T01:55:43.171Z,92707.00
2023-04-26T01:58:10.132Z,92705.59
2023-04-26T02:00:37.879Z,92713.72
2023-04-26T02:03:04.908Z,92707.34
2023-04-26T02:05:32.004Z,92699.84
2023-04-26T02:07:58.995Z,92697.47
2023-04-26T02:10:26.005Z,92695.19
2023-04-26T02:12:54.318Z,92701.09
2023-04-26T02:15:21.997Z,92701.25
2023-04-26T02:17:49.757Z,92687.56
2023-04-26T02:20:16.991Z,92688.81
2023-04-26T02:22:44.192Z,92689.94
2023-04-26T02:25:12.052Z,92695.38
2023-04-26T02:27:39.001Z,92694.59
2023-04-26T02:30:08.676Z,92702.06
2023-04-26T02:32:36.507Z,92700.63
2023-04-26T02:35:03.844Z,92701.25
2023-04-26T02:37:30.853Z,92699.81
2023-04-26T02:39:57.829Z,92687.56
2023-04-26T02:42:25.098Z,92694.22
2023-04-26T02:44:52.232Z,92685.44
2023-04-26T02:47:20.741Z,92684.47
2023-04-26T02:49:48.409Z,92683.53
2023-04-26T02:52:15.409Z,92672.34
2023-04-26T02:54:42.449Z,92678.22
2023-04-26T02:57:09.950Z,92674.88
2023-04-26T02:59:37.167Z,92671.84
2023-04-26T03:02:04.193Z,92674.03
2023-04-26T03:04:34.064Z,92679.94
2023-04-26T03:07:01.316Z,92686.47
2023-04-26T03:09:28.348Z,92678.16
2023-04-26T03:11:55.326Z,92676.72
2023-04-26T03:14:23.053Z,92675.09
2023-04-26T03:16:50.437Z,92668.34
2023-04-26T03:19:17.493Z,92671.41
2023-04-26T03:21:46.051Z,92670.50
2023-04-26T03:24:13.029Z,92674.31
2023-04-26T03:26:40.130Z,92678.97
2023-04-26T03:29:07.700Z,92675.56
2023-04-26T03:31:34.999Z,92674.13
2023-04-26T03:34:01.921Z,92680.94
2023-04-26T03:36:29.875Z,92683.19
2023-04-26T03:38:58.326Z,92679.19
2023-04-26T03:41:25.581Z,92679.81
2023-04-26T03:43:54.127Z,92681.88
2023-04-26T03:46:21.166Z,92689.41
2023-04-26T03:48:48.970Z,92679.16
2023-04-26T03:51:16.858Z,92690.94
2023-04-26T03:53:44.881Z,92679.53
2023-04-26T03:56:13.883Z,92677.91
2023-04-26T03:58:40.989Z,92674.66
2023-04-26T04:01:08.722Z,92671.66
2023-04-26T04:06:02.940Z,92688.38
2023-04-26T04:08:29.941Z,92697.59
2023-04-26T04:10:57.050Z,92698.16
2023-04-26T04:13:26.455Z,92702.09
2023-04-26T04:15:53.448Z,92699.31
2023-04-26T04:18:20.536Z,92712.53
2023-04-26T04:20:47.514Z,92710.88
2023-04-26T04:23:14.681Z,92703.31
2023-04-26T04:25:42.442Z,92705.19
2023-04-26T04:28:12.116Z,92712.47
2023-04-26T04:30:41.634Z,92716.28
2023-04-26T04:33:08.677Z,92712.03
2023-04-26T04:35:35.691Z,92715.50
2023-04-26T04:38:04.956Z,92717.81
2023-04-26T04:40:32.880Z,92721.44
2023-04-26T04:43:01.031Z,92719.31
2023-04-26T04:45:29.190Z,92714.47
2023-04-26T04:47:59.112Z,92723.22
2023-04-26T04:50:27.282Z,92735.16
2023-04-26T04:52:55.551Z,92728.44
2023-04-26T04:55:22.832Z,92726.34
2023-04-26T04:57:49.982Z,92729.16
2023-04-26T05:00:18.015Z,92723.31
2023-04-26T05:02:49.814Z,92727.13
2023-04-26T05:05:18.522Z,92728.38
2023-04-26T05:07:45.623Z,92728.63
2023-04-26T05:10:13.440Z,92719.59
2023-04-26T05:12:41.127Z,92724.47
2023-04-26T05:15:09.358Z,92731.19
2023-04-26T05:17:36.568Z,92727.72
2023-04-26T05:20:31.352Z,92725.84
2023-04-26T05:22:58.257Z,92727.34
2023-04-26T05:25:25.894Z,92729.19
2023-04-26T05:28:12.645Z,92733.44
2023-04-26T05:30:59.896Z,92733.75
2023-04-26T05:33:39.912Z,92740.97
2023-04-26T05:36:21.384Z,92743.47
2023-04-26T05:38:48.907Z,92742.56
2023-04-26T05:41:16.189Z,92747.78
2023-04-26T05:43:43.630Z,92744.28
2023-04-26T05:46:10.740Z,92747.88
2023-04-26T05:48:37.874Z,92754.25
2023-04-26T05:51:06.708Z,92748.19
2023-04-26T05:53:35.037Z,92750.00
2023-04-26T05:56:02.502Z,92750.69
2023-04-26T05:58:29.477Z,92748.22
2023-04-26T06:00:56.863Z,92752.63
2023-04-26T06:03:24.755Z,92750.28
2023-04-26T06:05:52.797Z,92748.16
2023-04-26T06:08:21.854Z,92752.22
2023-04-26T06:10:51.406Z,92748.72
2023-04-26T06:13:18.345Z,92752.00
2023-04-26T06:15:45.556Z,92750.69
2023-04-26T06:18:12.632Z,92749.31
2023-04-26T06:20:39.873Z,92745.75
2023-04-26T06:23:07.776Z,92751.97
2023-04-26T06:25:35.129Z,92759.28
2023-04-26T06:28:03.912Z,92748.50
2023-04-26T06:30:31.345Z,92756.97
2023-04-26T06:33:00.296Z,92756.41
2023-04-26T06:35:27.719Z,92755.38
2023-04-26T06:37:54.694Z,92754.34
2023-04-26T06:40:22.264Z,92761.06
2023-04-26T06:42:49.709Z,92764.53
2023-04-26T06:45:19.028Z,92761.50
2023-04-26T06:47:46.815Z,92765.91
2023-04-26T06:50:14.050Z,92759.69
2023-04-26T06:52:40.941Z,92759.38
2023-04-26T06:55:09.187Z,92761.72
2023-04-26T06:57:36.487Z,92757.25
2023-04-26T07:00:04.674Z,92766.13
2023-04-26T07:02:33.094Z,92764.28
2023-04-26T07:05:00.045Z,92770.47
2023-04-26T07:07:27.452Z,92768.59
2023-04-26T07:09:54.612Z,92772.19
2023-04-26T07:12:21.827Z,92766.47
2023-04-26T07:14:48.840Z,92766.31
2023-04-26T07:17:15.813Z,92767.81
2023-04-26T07:19:44.142Z,92751.84
2023-04-26T07:22:11.137Z,92761.03
2023-04-26T07:24:38.222Z,92757.72
2023-04-26T07:27:05.137Z,92757.75
2023-04-26T07:29:32.098Z,92751.59
2023-04-26T07:31:59.315Z,92756.59
2023-04-26T07:34:26.336Z,92763.31
2023-04-26T07:36:54.781Z,92764.31
2023-04-26T07:39:21.625Z,92755.53
2023-04-26T07:41:48.701Z,92762.69
2023-04-26T07:44:15.880Z,92751.97
2023-04-26T07:46:42.800Z,92765.69
2023-04-26T07:49:09.829Z,92771.25
2023-04-26T07:51:37.244Z,92771.44
2023-04-26T07:54:05.861Z,92770.78
2023-04-26T07:56:32.863Z,92777.34
2023-04-26T07:58:59.813Z,92771.00
2023-04-26T08:01:27.169Z,92774.63
2023-04-26T08:03:55.702Z,92775.84
2023-04-26T08:06:23.000Z,92775.03
2023-04-26T08:08:50.944Z,92773.25
2023-04-26T08:11:19.471Z,92771.47
2023-04-26T08:13:46.702Z,92780.00
2023-04-26T08:16:14.094Z,92777.25
2023-04-26T08:18:41.125Z,92775.63
2023-04-26T08:21:08.064Z,92777.44
2023-04-26T08:23:38.359Z,92781.19
2023-04-26T08:26:06.591Z,92793.91
2023-04-26T08:28:35.881Z,92789.91
2023-04-26T08:31:03.000Z,92791.25
2023-04-26T08:33:30.004Z,92782.97
2023-04-26T08:35:59.473Z,92787.34
2023-04-26T08:38:26.824Z,92782.78
2023-04-26T08:40:56.287Z,92781.63
2023-04-26T08:43:23.521Z,92789.56
2023-04-26T08:45:51.867Z,92781.22
2023-04-26T08:48:18.762Z,92783.63
2023-04-26T08:50:49.007Z,92787.38
2023-04-26T08:53:18.013Z,92794.56
2023-04-26T08:55:48.370Z,92795.13
2023-04-26T08:58:16.635Z,92778.66
2023-04-26T09:00:45.154Z,92788.19
2023-04-26T09:03:13.856Z,92789.00
2023-04-26T09:05:44.301Z,92793.16
2023-04-26T09:08:16.350Z,92788.41
2023-04-26T09:10:43.608Z,92802.69
2023-04-26T09:13:11.530Z,92799.13
2023-04-26T09:15:39.087Z,92799.31
2023-04-26T09:18:21.429Z,92800.91
2023-04-26T09:21:03.054Z,92804.66
2023-04-26T09:23:30.791Z,92814.63
2023-04-26T09:26:14.909Z,92806.66
2023-04-26T09:28:42.805Z,92812.81
2023-04-26T09:31:10.464Z,92813.41
2023-04-26T09:33:57.921Z,92816.59
2023-04-26T09:36:24.849Z,92806.66
2023-04-26T09:38:52.021Z,92805.44
2023-04-26T09:41:19.172Z,92806.25
2023-04-26T09:43:46.783Z,92795.69
2023-04-26T09:46:23.973Z,92796.06
2023-04-26T09:49:03.043Z,92796.38
2023-04-26T09:51:30.223Z,92795.75
2023-04-26T09:53:57.248Z,92790.94
2023-04-26T09:56:24.269Z,92790.03
2023-04-26T09:59:00.908Z,92788.81
2023-04-26T10:01:33.264Z,92791.28
2023-04-26T10:04:02.676Z,92791.59
2023-04-26T10:06:29.752Z,92784.16
2023-04-26T10:08:57.104Z,92793.66
2023-04-26T10:11:25.028Z,92786.00
2023-04-26T10:13:52.209Z,92789.44
2023-04-26T10:16:19.534Z,92789.28
2023-04-26T10:18:46.546Z,92789.25
2023-04-26T10:21:17.414Z,92783.97
2023-04-26T10:23:46.132Z,92772.44
2023-04-26T10:26:51.737Z,92776.44
2023-04-26T10:29:19.323Z,92781.56
2023-04-26T10:32:09.576Z,92786.69
2023-04-26T10:34:37.697Z,92772.22
2023-04-26T10:37:10.258Z,92778.09
2023-04-26T10:39:37.748Z,92780.03
2023-04-26T10:42:25.443Z,92794.25
2023-04-26T10:44:54.070Z,92779.22
2023-04-26T10:47:32.008Z,92780.34
2023-04-26T10:50:05.878Z,92779.59
2023-04-26T10:52:35.043Z,92775.84
2023-04-26T10:55:02.854Z,92777.91
2023-04-26T10:57:52.375Z,92784.41
2023-04-26T11:00:31.960Z,92777.09
2023-04-26T11:03:07.103Z,92773.91
2023-04-26T11:05:54.258Z,92771.75
2023-04-26T11:08:25.669Z,92788.59
2023-04-26T11:10:58.611Z,92787.44
2023-04-26T11:13:25.854Z,92779.44
2023-04-26T11:15:53.839Z,92774.34
2023-04-26T11:18:21.348Z,92773.53
2023-04-26T11:20:48.332Z,92778.59
2023-04-26T11:23:15.485Z,92777.56
2023-04-26T11:25:44.511Z,92771.47
2023-04-26T11:28:12.176Z,92781.03
2023-04-26T11:30:39.218Z,92784.84
2023-04-26T11:33:06.518Z,92779.38
2023-04-26T11:35:35.079Z,92782.19
2023-04-26T11:38:04.305Z,92776.44
2023-04-26T11:40:32.631Z,92777.66
2023-04-26T11:43:02.461Z,92780.53
2023-04-26T11:45:29.840Z,92775.78
2023-04-26T11:47:57.842Z,92784.63
2023-04-26T11:50:26.857Z,92784.59
2023-04-26T11:52:55.775Z,92785.00
2023-04-26T11:55:28.692Z,92776.66
2023-04-26T11:57:56.039Z,92771.09
2023-04-26T12:00:25.753Z,92772.09
2023-04-26T12:02:53.645Z,92773.94
2023-04-26T12:05:24.964Z,92772.44
2023-04-26T12:07:52.940Z,92766.81
2023-04-26T12:10:21.635Z,92771.47
2023-04-26T12:12:50.024Z,92761.22
2023-04-26T12:15:18.129Z,92770.63
2023-04-26T12:17:57.449Z,92765.94
2023-04-26T12:20:32.125Z,92764.22
2023-04-26T12:22:59.470Z,92773.25
2023-04-26T12:25:26.399Z,92771.00
2023-04-26T12:27:53.352Z,92770.16
2023-04-26T12:30:20.515Z,92771.19
2023-04-26T12:33:15.506Z,92769.63
2023-04-26T12:35:46.868Z,92769.34
2023-04-26T12:38:14.629Z,92756.28
2023-04-26T12:40:42.473Z,92759.16
2023-04-26T12:43:10.029Z,92751.91
2023-04-26T12:45:37.327Z,92769.16
2023-04-26T12:48:06.536Z,92765.66
2023-04-26T12:50:33.630Z,92755.44
2023-04-26T12:53:00.560Z,92759.47
2023-04-26T12:55:28.244Z,92759.56
2023-04-26T12:57:56.602Z,92758.41
2023-04-26T13:00:23.637Z,92759.94
2023-04-26T13:02:50.981Z,92762.00
2023-04-26T13:05:19.545Z,92767.63
2023-04-26T13:07:46.608Z,92765.03
2023-04-26T13:10:13.690Z,92758.44
2023-04-26T13:12:40.765Z,92776.00
2023-04-26T13:15:08.862Z,92777.47
2023-04-26T13:17:37.474Z,92777.16
2023-04-26T13:20:06.056Z,92784.97
2023-04-26T13:22:34.820Z,92794.91
2023-04-26T13:25:02.150Z,92789.38
2023-04-26T13:27:31.354Z,92801.50
2023-04-26T13:29:58.854Z,92802.09
2023-04-26T13:32:26.120Z,92805.28
2023-04-26T13:34:53.555Z,92804.47
2023-04-26T13:37:21.541Z,92805.44
2023-04-26T13:39:50.099Z,92802.44
2023-04-26T13:42:17.626Z,92805.22
2023-04-26T13:44:44.883Z,92801.63
2023-04-26T13:47:11.900Z,92806.56
2023-04-26T13:49:41.446Z,92821.22
2023-04-26T13:52:08.391Z,92818.03
2023-04-26T13:54:36.865Z,92823.34
2023-04-26T13:57:05.933Z,92829.28
2023-04-26T13:59:33.005Z,92834.78
2023-04-26T14:01:59.956Z,92837.38
2023-04-26T14:04:27.230Z,92835.97
2023-04-26T14:06:54.509Z,92839.91
2023-04-26T14:09:21.578Z,92835.72
2023-04-26T14:11:54.200Z,92844.66
2023-04-26T14:14:29.187Z,92842.47
2023-04-26T14:16:56.090Z,92848.63
2023-04-26T14:19:23.185Z,92858.69
2023-04-26T14:21:50.221Z,92859.25
2023-04-26T14:24:17.234Z,92872.31
2023-04-26T14:26:44.290Z,92866.75
2023-04-26T14:29:11.200Z,92861.56
2023-04-26T14:31:39.650Z,92878.38
2023-04-26T14:34:06.468Z,92874.22
2023-04-26T14:36:33.814Z,92879.03
2023-04-26T14:39:01.183Z,92897.22
2023-04-26T14:41:28.244Z,92890.00
2023-04-26T14:43:55.210Z,92891.72
2023-04-26T14:46:22.752Z,92897.78
2023-04-26T14:48:51.296Z,92896.78
2023-04-26T14:51:18.284Z,92898.06
2023-04-26T14:53:45.910Z,92903.94
2023-04-26T14:56:12.979Z,92906.25
2023-04-26T14:58:39.998Z,92912.50
2023-04-26T15:01:07.710Z,92917.66
2023-04-26T15:03:34.975Z,92926.41
2023-04-26T15:06:04.005Z,92912.94
2023-04-26T15:08:31.536Z,92931.84
2023-04-26T15:10:58.583Z,92929.38
2023-04-26T15:13:25.544Z,92933.56
2023-04-26T15:15:52.814Z,92945.00
2023-04-26T15:18:19.882Z,92940.41
2023-04-26T15:20:46.888Z,92943.16
2023-04-26T15:23:15.433Z,92945.84
2023-04-26T15:25:42.542Z,92953.84
2023-04-26T15:28:09.554Z,92951.78
2023-04-26T15:30:36.578Z,92953.75
2023-04-26T15:33:03.821Z,92956.31
2023-04-26T15:35:31.382Z,92961.19
2023-04-26T15:37:58.483Z,92970.56
2023-04-26T15:40:27.712Z,92968.22
2023-04-26T15:42:54.728Z,92972.19
2023-04-26T15:45:21.789Z,92974.31
2023-04-26T15:47:48.849Z,92967.94
2023-04-26T15:50:16.020Z,92978.38
2023-04-26T15:52:43.149Z,92980.66
2023-04-26T15:55:10.597Z,92977.91
2023-04-26T15:57:41.564Z,92981.00
2023-04-26T16:00:12.915Z,92988.59
2023-04-26T16:02:40.056Z,92984.44
2023-04-26T16:05:08.338Z,92993.09
2023-04-26T16:07:35.881Z,93001.69
2023-04-26T16:10:03.248Z,93006.13
2023-04-26T16:12:30.245Z,93009.94
2023-04-26T16:14:59.147Z,93002.75
2023-04-26T16:17:26.380Z,93003.44
2023-04-26T16:19:53.321Z,93005.63
2023-04-26T16:22:20.388Z,93002.84
2023-04-26T16:24:47.372Z,93006.91
2023-04-26T16:27:14.384Z,93017.00
2023-04-26T16:29:41.336Z,93021.53
2023-04-26T16:32:09.848Z,93030.03
2023-04-26T16:34:36.850Z,93030.72
2023-04-26T16:37:03.876Z,93021.75
2023-04-26T16:39:31.578Z,93026.38
2023-04-26T16:41:58.642Z,93030.53
2023-04-26T16:44:25.855Z,93033.88
2023-04-26T16:46:52.846Z,93031.22
2023-04-26T16:49:21.227Z,93037.50
2023-04-26T16:51:53.768Z,93033.69
2023-04-26T16:54:21.018Z,93040.47
2023-04-26T16:56:47.972Z,93034.25
2023-04-26T16:59:14.999Z,93032.81
2023-04-26T17:01:42.163Z,93049.97
2023-04-26T17:04:12.395Z,93047.59
2023-04-26T17:06:41.425Z,93052.44
2023-04-26T17:09:08.863Z,93056.78
2023-04-26T17:11:37.424Z,93059.22
2023-04-26T17:14:04.692Z,93065.66
2023-04-26T17:16:31.831Z,93076.44
2023-04-26T17:18:58.925Z,93079.50
2023-04-26T17:21:26.052Z,93074.81
2023-04-26T17:23:54.709Z,93079.34
2023-04-26T17:26:22.114Z,93088.81
2023-04-26T17:28:49.052Z,93101.63
2023-04-26T17:31:16.169Z,93099.06
2023-04-26T17:33:43.412Z,93094.72
2023-04-26T17:36:10.893Z,93117.00
2023-04-26T17:38:37.856Z,93107.56
2023-04-26T17:41:06.195Z,93101.31
2023-04-26T17:43:33.232Z,93107.25
2023-04-26T17:46:00.461Z,93109.97
2023-04-26T17:48:29.167Z,93114.31
2023-04-26T17:50:56.364Z,93114.75
2023-04-26T17:53:23.532Z,93118.28
2023-04-26T17:55:51.955Z,93122.97
2023-04-26T17:58:20.694Z,93127.63
2023-04-26T18:00:48.813Z,93140.47
2023-04-26T18:03:16.033Z,93137.59
2023-04-26T18:05:43.164Z,93136.28
2023-04-26T18:08:10.194Z,93144.94
2023-04-26T18:10:37.299Z,93148.50
2023-04-26T18:13:04.292Z,93148.00
2023-04-26T18:15:32.619Z,93161.63
2023-04-26T18:17:59.840Z,93159.81
2023-04-26T18:20:27.146Z,93173.16
2023-04-26T18:22:54.107Z,93166.06
2023-04-26T18:25:21.095Z,93184.38
2023-04-26T18:27:48.028Z,93180.66
2023-04-26T18:30:15.305Z,93185.47
2023-04-26T18:32:43.747Z,93184.50
2023-04-26T18:35:11.834Z,93193.16
2023-04-26T18:37:39.786Z,93194.47
2023-04-26T18:40:08.044Z,93193.16
2023-04-26T18:42:35.003Z,93190.09
2023-04-26T18:45:02.571Z,93185.31
2023-04-26T18:47:29.595Z,93190.09
2023-04-26T18:49:58.340Z,93192.72
2023-04-26T18:52:43.450Z,93196.53
2023-04-26T18:55:10.634Z,93186.94
2023-04-26T18:57:37.543Z,93196.22
2023-04-26T19:00:06.551Z,93199.91
2023-04-26T19:02:34.446Z,93198.50
2023-04-26T19:05:04.672Z,93202.66
2023-04-26T19:07:31.854Z,93205.88
2023-04-26T19:10:00.844Z,93205.22
2023-04-26T19:12:28.498Z,93206.38
2023-04-26T19:14:55.483Z,93208.75
2023-04-26T19:17:22.764Z,93203.13
2023-04-26T19:19:52.190Z,93210.69
2023-04-26T19:22:20.692Z,93211.50
2023-04-26T19:24:48.931Z,93215.94
2023-04-26T19:27:16.458Z,93219.31
2023-04-26T19:29:43.406Z,93217.09
2023-04-26T19:32:10.367Z,93219.81
2023-04-26T19:34:38.972Z,93226.22
2023-04-26T19:37:05.902Z,93230.56
2023-04-26T19:39:34.316Z,93229.94
2023-04-26T19:42:01.609Z,93226.56
2023-04-26T19:44:28.622Z,93225.78
2023-04-26T19:46:56.630Z,93223.50
2023-04-26T19:49:23.688Z,93224.00
2023-04-26T19:51:50.774Z,93228.03
2023-04-26T19:54:18.078Z,93234.13
2023-04-26T19:56:46.606Z,93229.16
2023-04-26T19:59:13.674Z,93234.28
2023-04-26T20:01:40.678Z,93236.03
2023-04-26T20:04:07.848Z,93235.56
2023-04-26T20:06:35.130Z,93240.84
2023-04-26T20:09:02.236Z,93250.28
2023-04-26T20:11:29.227Z,93245.97
2023-04-26T20:13:57.664Z,93246.63
2023-04-26T20:16:25.307Z,93251.75
2023-04-26T20:18:52.321Z,93252.22
2023-04-26T20:21:19.268Z,93250.78
2023-04-26T20:23:46.389Z,93248.22
2023-04-26T20:26:13.453Z,93260.41
2023-04-26T20:28:40.673Z,93254.63
2023-04-26T20:31:09.584Z,93255.44
2023-04-26T20:33:36.771Z,93259.44
2023-04-26T20:36:03.842Z,93254.47
2023-04-26T20:38:30.828Z,93254.94
2023-04-26T20:40:57.982Z,93256.22
2023-04-26T20:43:25.046Z,93250.31
2023-04-26T20:45:52.045Z,93258.31
2023-04-26T20:48:20.557Z,93262.00
2023-04-26T20:50:47.662Z,93262.47
2023-04-26T20:53:14.621Z,93264.22
2023-04-26T20:55:41.676Z,93271.13
2023-04-26T20:58:08.707Z,93263.59
2023-04-26T21:00:35.924Z,93268.69
2023-04-26T21:03:03.094Z,93272.91
2023-04-26T21:05:31.765Z,93276.88
2023-04-26T21:07:58.554Z,93281.34
2023-04-26T21:10:25.599Z,93278.91
2023-04-26T21:12:52.748Z,93281.47
2023-04-26T21:15:19.740Z,93288.88
2023-04-26T21:17:46.982Z,93289.66
2023-04-26T21:20:14.256Z,93284.72
2023-04-26T21:22:42.610Z,93289.63
2023-04-26T21:25:10.603Z,93295.06
2023-04-26T21:27:37.491Z,93301.78
2023-04-26T21:30:05.433Z,93300.81
2023-04-26T21:32:32.367Z,93308.22
2023-04-26T21:34:59.363Z,93305.47
2023-04-26T21:37:26.872Z,93308.69
2023-04-26T21:39:55.365Z,93314.41
2023-04-26T21:42:22.345Z,93316.84
2023-04-26T21:44:49.309Z,93321.75
2023-04-26T21:47:16.511Z,93313.47
2023-04-26T21:49:43.439Z,93319.84
2023-04-26T21:52:10.618Z,93314.69
2023-04-26T21:54:37.640Z,93328.63
2023-04-26T21:57:06.832Z,93325.41
2023-04-26T21:59:34.191Z,93322.34
2023-04-26T22:02:01.311Z,93328.63
2023-04-26T22:04:28.455Z,93322.69
2023-04-26T22:06:55.533Z,93324.78
2023-04-26T22:09:22.697Z,93324.13
2023-04-26T22:11:49.695Z,93329.25
2023-04-26T22:14:18.148Z,93331.78
2023-04-26T22:16:45.171Z,93326.34
2023-04-26T22:19:12.368Z,93328.56
2023-04-26T22:21:39.451Z,93340.41
2023-04-26T22:24:07.315Z,93348.06
2023-04-26T22:26:34.293Z,93339.75
2023-04-26T22:29:01.268Z,93341.34
2023-04-26T22:31:29.665Z,93352.25
2023-04-26T22:33:56.854Z,93352.38
2023-04-26T22:36:24.003Z,93354.00
2023-04-26T22:38:51.172Z,93364.03
2023-04-26T22:41:18.108Z,93360.31
2023-04-26T22:43:47.260Z,93361.63
2023-04-26T22:46:14.226Z,93354.25
2023-04-26T22:48:42.556Z,93359.06
2023-04-26T22:51:09.514Z,93360.81
2023-04-26T22:53:36.438Z,93356.69
2023-04-26T22:56:04.611Z,93363.47
2023-04-26T22:58:31.578Z,93355.19
2023-04-26T23:00:58.569Z,93359.03
2023-04-26T23:03:25.694Z,93363.84
2023-04-26T23:05:54.134Z,93363.66
2023-04-26T23:08:21.482Z,93359.50
2023-04-26T23:10:48.429Z,93357.25
2023-04-26T23:13:16.281Z,93360.75
2023-04-26T23:15:43.405Z,93354.63
2023-04-26T23:18:10.642Z,93350.63
2023-04-26T23:20:37.635Z,93348.22
2023-04-26T23:23:24.507Z,93351.25
2023-04-26T23:25:51.485Z,93342.94
2023-04-26T23:28:18.414Z,93345.66
2023-04-26T23:30:45.668Z,93350.09
2023-04-26T23:33:12.611Z,93345.31
2023-04-26T23:35:41.204Z,93348.31
2023-04-26T23:38:09.577Z,93352.63
2023-04-26T23:40:37.386Z,93356.44
2023-04-26T23:43:06.225Z,93352.63
2023-04-26T23:45:33.304Z,93350.88
2023-04-26T23:48:00.394Z,93344.47
2023-04-26T23:50:27.608Z,93355.03
2023-04-26T23:52:54.561Z,93348.44
2023-04-26T23:55:23.884Z,93353.44
2023-04-26T23:57:50.852Z,93354.69
